Time;durP1;ratioP1;P1;durP2;ratioP2;P2;SDS_P1;SDS_P2;PMS_P1;PMS_P2;Temp;Humidity;BMP_temperature;BMP_pressure;BME280_temperature;BME280_humidity;BME280_pressure;Samples;Min_cycle;Max_cycle;Signal;HPM_P1;HPM_P2
2023/07/06 00:03:26;;;;;;;6.40;4.90;;;;;;;17.64;81.66;99613.89;218037;1257;140528;-67
2023/07/06 00:08:29;;;;;;;5.60;4.90;;;;;;;17.68;81.78;99610.20;218510;1256;140578;-66
2023/07/06 00:13:33;;;;;;;5.50;4.90;;;;;;;17.68;81.74;99611.12;218036;1257;139893;-67
2023/07/06 00:18:41;;;;;;;9.50;5.30;;;;;;;17.69;81.84;99612.63;217863;1257;142618;-66
2023/07/06 00:23:47;;;;;;;10.10;4.90;;;;;;;17.69;81.94;99616.56;217704;1257;140868;-66
2023/07/06 00:28:53;;;;;;;7.50;5.50;;;;;;;17.68;81.90;99625.45;218088;1260;140978;-66
2023/07/06 00:34:04;;;;;;;5.80;5.20;;;;;;;17.64;81.88;99630.44;217731;1256;141235;-66
2023/07/06 00:39:12;;;;;;;8.10;5.30;;;;;;;17.59;82.03;99628.14;217751;1261;141006;-66
2023/07/06 00:44:47;;;;;;;8.90;5.30;;;;;;;17.57;82.10;99626.60;218099;1256;140392;-66
2023/07/06 00:49:53;;;;;;;6.30;4.80;;;;;;;17.56;82.19;99621.70;220132;1257;140432;-67
2023/07/06 00:55:00;;;;;;;5.90;4.90;;;;;;;17.58;82.23;99621.26;218628;1256;139228;-66
2023/07/06 01:00:05;;;;;;;;;;;;;;;17.62;82.16;99624.66;220266;1256;141978;-67
2023/07/06 01:05:10;;;;;;;6.70;4.80;;;;;;;17.61;82.17;99632.92;220639;1256;126302;-67
2023/07/06 01:10:15;;;;;;;36.60;7.40;;;;;;;17.62;82.04;99634.32;219257;1256;141515;-67
2023/07/06 01:15:21;;;;;;;7.80;5.80;;;;;;;17.61;81.94;99635.46;220379;1257;142035;-67
2023/07/06 01:20:49;;;;;;;7.20;5.20;;;;;;;17.58;81.85;99638.01;219285;1261;140316;-67
2023/07/06 01:26:12;;;;;;;9.60;6.30;;;;;;;17.59;81.91;99634.72;218439;1260;139573;-66
2023/07/06 01:31:20;;;;;;;12.50;4.80;;;;;;;17.58;81.93;99639.96;217867;1259;139593;-66
2023/07/06 01:36:38;;;;;;;6.10;5.30;;;;;;;17.54;81.87;99644.89;218064;1257;140309;-66
2023/07/06 01:41:45;;;;;;;12.90;6.40;;;;;;;17.49;81.54;99655.87;217757;1260;141996;-67
2023/07/06 01:46:53;;;;;;;7.10;5.20;;;;;;;17.42;81.50;99669.18;218393;1260;140555;-67
2023/07/06 01:52:08;;;;;;;9.20;5.70;;;;;;;17.37;81.27;99671.50;217629;1257;140227;-67
2023/07/06 01:57:20;;;;;;;6.90;5.60;;;;;;;17.33;81.15;99673.84;217880;1260;140962;-66
2023/07/06 02:02:26;;;;;;;5.70;5.20;;;;;;;17.29;81.01;99685.02;218385;1257;139606;-67
2023/07/06 02:07:32;;;;;;;5.00;4.00;;;;;;;17.25;80.65;99692.59;217806;1257;140777;-66
2023/07/06 02:12:37;;;;;;;9.10;5.00;;;;;;;17.18;80.64;99699.96;218007;1260;140292;-67
2023/07/06 02:17:42;;;;;;;12.50;5.30;;;;;;;17.14;80.43;99699.23;217925;1257;140044;-66
2023/07/06 02:22:47;;;;;;;9.40;4.30;;;;;;;17.10;80.27;99703.52;217833;1257;222857;-66
2023/07/06 02:27:51;;;;;;;8.20;5.00;;;;;;;17.02;79.94;99709.16;218205;1257;140137;-66
2023/07/06 02:32:55;;;;;;;13.00;4.70;;;;;;;16.93;79.81;99716.15;218996;1257;141826;-67
2023/07/06 02:37:59;;;;;;;5.00;4.50;;;;;;;16.82;79.62;99716.25;217754;1257;141196;-67
2023/07/06 02:43:03;;;;;;;12.30;4.20;;;;;;;16.71;79.50;99719.00;218462;1257;140263;-66
2023/07/06 02:48:07;;;;;;;7.40;4.30;;;;;;;16.62;79.45;99725.73;219033;1260;141149;-66
2023/07/06 02:53:12;;;;;;;6.50;4.40;;;;;;;16.54;79.38;99726.83;219846;1256;141288;-66
2023/07/06 02:58:18;;;;;;;13.70;4.70;;;;;;;16.45;79.51;99731.27;220190;1257;140424;-67
2023/07/06 03:03:26;;;;;;;6.30;4.00;;;;;;;16.39;79.39;99734.84;219710;1256;140962;-67
2023/07/06 03:08:31;;;;;;;8.80;3.40;;;;;;;16.33;79.42;99742.64;218424;1257;140243;-66
2023/07/06 03:13:36;;;;;;;6.60;4.10;;;;;;;16.24;79.33;99751.42;218595;1260;139893;-66
2023/07/06 03:18:41;;;;;;;10.60;3.90;;;;;;;16.17;79.48;99755.98;217970;1257;140160;-66
2023/07/06 03:23:45;;;;;;;7.20;4.20;;;;;;;16.10;79.25;99757.58;219691;1257;141364;-67
2023/07/06 03:28:50;;;;;;;4.20;3.80;;;;;;;16.05;79.32;99759.47;218302;1262;140582;-66
2023/07/06 03:33:56;;;;;;;11.50;3.80;;;;;;;16.01;79.23;99772.05;218224;1262;140444;-66
2023/07/06 03:39:02;;;;;;;6.70;4.30;;;;;;;15.99;79.24;99776.98;217678;1256;140299;-66
2023/07/06 03:44:06;;;;;;;8.10;4.30;;;;;;;15.98;79.27;99779.25;217741;1262;139740;-66
2023/07/06 03:49:13;;;;;;;3.90;3.50;;;;;;;16.00;79.44;99784.04;217710;1260;139904;-66
2023/07/06 03:54:17;;;;;;;6.40;4.10;;;;;;;16.02;79.65;99792.54;217849;1260;139870;-66
2023/07/06 03:59:23;;;;;;;4.50;3.40;;;;;;;16.21;79.88;99801.52;218205;1260;141822;-66
2023/07/06 04:04:28;;;;;;;6.20;4.50;;;;;;;16.50;79.81;99805.36;217777;1257;141851;-66
2023/07/06 04:09:32;;;;;;;4.00;3.40;;;;;;;16.82;79.60;99816.08;218620;1261;143132;-66
2023/07/06 04:14:37;;;;;;;5.40;4.30;;;;;;;17.11;79.29;99814.91;217511;1257;141587;-65
2023/07/06 04:19:41;;;;;;;5.80;3.90;;;;;;;17.33;78.71;99814.06;218386;1259;140460;-66
2023/07/06 04:24:47;;;;;;;22.40;4.20;;;;;;;17.72;78.07;99818.38;218851;1261;139941;-67
2023/07/06 04:29:52;;;;;;;5.30;4.20;;;;;;;18.22;77.18;99821.02;217724;1258;139951;-66
2023/07/06 04:34:56;;;;;;;4.30;2.90;;;;;;;18.70;76.18;99819.14;219258;1257;141057;-69
2023/07/06 04:40:11;;;;;;;6.60;3.80;;;;;;;19.60;74.39;99818.30;218584;1259;140386;-64
2023/07/06 04:45:17;;;;;;;6.10;4.00;;;;;;;21.27;71.78;99828.14;220098;1258;141946;-65
2023/07/06 04:50:24;;;;;;;5.20;3.50;;;;;;;21.55;70.32;99831.05;218099;1260;140569;-64
2023/07/06 04:55:33;;;;;;;6.20;3.30;;;;;;;21.94;68.60;99835.84;217963;1260;140105;-65
2023/07/06 05:00:45;;;;;;;5.10;3.10;;;;;;;21.44;67.66;99841.45;218859;1260;140184;-71
2023/07/06 05:05:51;;;;;;;2.80;2.60;;;;;;;21.82;66.63;99849.89;219020;1257;141424;-65
2023/07/06 05:10:56;;;;;;;7.60;2.90;;;;;;;22.29;65.83;99860.68;218159;1259;140506;-66
2023/07/06 05:16:01;;;;;;;4.20;2.90;;;;;;;24.39;62.96;99856.49;218559;1259;140844;-68
2023/07/06 05:21:05;;;;;;;4.20;3.10;;;;;;;27.60;59.10;99856.59;218326;1257;139681;-65
2023/07/06 05:26:13;;;;;;;5.00;2.70;;;;;;;30.38;55.20;99864.15;218029;1257;139377;-65
2023/07/06 05:31:18;;;;;;;4.40;2.20;;;;;;;33.05;51.52;99874.07;217598;1260;140232;-65
2023/07/06 05:36:23;;;;;;;1.50;1.40;;;;;;;35.28;47.42;99889.61;217847;1260;139768;-66
2023/07/06 05:41:28;;;;;;;2.00;1.50;;;;;;;37.05;43.48;99886.09;217685;1259;139197;-66
2023/07/06 05:46:33;;;;;;;5.50;1.90;;;;;;;38.57;40.45;99890.75;218304;1257;140381;-68
2023/07/06 05:51:38;;;;;;;3.30;1.60;;;;;;;39.66;38.07;99894.13;218656;1260;139921;-68
2023/07/06 05:56:42;;;;;;;2.50;1.80;;;;;;;39.67;35.80;99909.67;218271;1260;139748;-67
2023/07/06 06:01:46;;;;;;;2.80;1.10;;;;;;;40.07;34.18;99917.64;218898;1260;138669;-67
2023/07/06 06:06:54;;;;;;;0.80;0.80;;;;;;;40.28;32.47;99927.11;218449;1260;140315;-68
2023/07/06 06:12:00;;;;;;;5.30;1.60;;;;;;;40.81;30.52;99923.88;218552;1260;139870;-68
2023/07/06 06:17:05;;;;;;;3.40;1.30;;;;;;;39.85;30.22;99925.89;218093;1256;139404;-67
2023/07/06 06:22:10;;;;;;;1.90;0.80;;;;;;;38.13;29.66;99925.40;218388;1257;139689;-67
2023/07/06 06:27:19;;;;;;;2.70;1.20;;;;;;;36.27;30.08;99929.68;218740;1257;140893;-67
2023/07/06 06:32:25;;;;;;;1.20;1.20;;;;;;;35.61;30.73;99932.80;220458;1257;139321;-67
2023/07/06 06:37:29;;;;;;;2.90;1.30;;;;;;;35.92;30.75;99937.19;220553;1257;139376;-69
2023/07/06 06:42:33;;;;;;;2.50;1.60;;;;;;;36.66;30.24;99945.92;218663;1257;139956;-70
2023/07/06 06:47:38;;;;;;;1.80;1.40;;;;;;;37.36;29.49;99947.81;218969;1257;139338;-67
2023/07/06 06:52:43;;;;;;;2.40;1.50;;;;;;;37.44;28.93;99956.41;220391;1257;139214;-70
2023/07/06 06:57:49;;;;;;;3.70;1.60;;;;;;;37.25;28.53;99954.34;218690;1257;138964;-70
2023/07/06 07:02:53;;;;;;;1.90;1.60;;;;;;;36.72;28.54;99955.55;219247;1257;140298;-72
2023/07/06 07:07:58;;;;;;;4.50;1.60;;;;;;;35.41;28.81;99955.52;218816;1256;139110;-73
2023/07/06 07:13:03;;;;;;;1.10;1.10;;;;;;;34.51;29.07;99959.48;217801;1257;139022;-70
2023/07/06 07:18:09;;;;;;;1.00;1.00;;;;;;;33.53;29.23;99965.48;218537;1256;139202;-70
2023/07/06 07:23:14;;;;;;;1.80;1.50;;;;;;;32.34;30.07;99977.86;217905;1257;140283;-72
2023/07/06 07:28:23;;;;;;;4.90;1.60;;;;;;;31.23;30.47;99978.79;218257;1256;140750;-71
2023/07/06 07:33:30;;;;;;;2.80;2.00;;;;;;;30.25;31.49;99980.95;218091;1256;139462;-70
2023/07/06 07:38:39;;;;;;;3.70;1.40;;;;;;;29.49;31.61;99973.21;217721;1257;140267;-69
2023/07/06 07:43:42;;;;;;;3.10;2.10;;;;;;;28.83;32.54;99973.45;218138;1257;139169;-72
2023/07/06 07:48:50;;;;;;;29.10;3.10;;;;;;;28.40;33.47;99980.71;217950;1260;139138;-69
2023/07/06 07:53:59;;;;;;;2.00;1.20;;;;;;;28.02;33.78;99988.02;218660;1257;140412;-68
2023/07/06 07:59:10;;;;;;;9.20;2.00;;;;;;;27.79;33.94;99992.86;217783;1257;139585;-68
2023/07/06 08:04:22;;;;;;;2.30;2.00;;;;;;;27.80;34.79;100001.98;219345;1257;139214;-67
2023/07/06 08:09:28;;;;;;;3.30;2.10;;;;;;;27.82;34.47;100005.64;217940;1260;140029;-68
2023/07/06 08:14:43;;;;;;;10.70;2.30;;;;;;;27.60;34.07;100004.45;217821;1257;140464;-65
2023/07/06 08:19:48;;;;;;;3.00;2.00;;;;;;;27.22;34.37;100000.96;219063;1256;139816;-65
2023/07/06 08:25:13;;;;;;;4.90;2.70;;;;;;;26.77;35.21;100009.85;218094;1256;139440;-65
2023/07/06 08:30:22;;;;;;;2.10;1.70;;;;;;;26.43;35.57;100012.98;220414;1256;139063;-66
2023/07/06 08:35:34;;;;;;;2.50;1.80;;;;;;;26.25;36.39;100014.61;220322;1256;142195;-66
2023/07/06 08:40:48;;;;;;;1.70;1.60;;;;;;;26.12;36.39;99999.58;220341;1256;140396;-67
2023/07/06 08:46:05;;;;;;;10.50;2.40;;;;;;;26.00;36.69;99990.06;217799;1257;139547;-66
2023/07/06 08:51:51;;;;;;;1.90;1.80;;;;;;;25.95;37.39;100001.92;218921;1257;139625;-66
2023/07/06 08:57:22;;;;;;;3.70;2.40;;;;;;;25.83;38.01;100010.55;218012;1257;139308;-66
2023/07/06 09:02:39;;;;;;;2.50;2.20;;;;;;;25.53;38.37;100009.80;219487;1256;138805;-67
2023/07/06 09:07:53;;;;;;;2.50;2.30;;;;;;;25.22;38.76;100007.09;217730;1257;140317;-67
2023/07/06 09:13:22;;;;;;;2.90;2.20;;;;;;;24.85;38.84;100003.67;218592;1256;139322;-65
2023/07/06 09:18:37;;;;;;;3.50;1.60;;;;;;;24.50;39.37;100021.27;217771;1257;143098;-66
2023/07/06 09:23:47;;;;;;;6.00;2.10;;;;;;;24.32;39.74;100017.50;218765;1256;139289;-66
2023/07/06 09:29:37;;;;;;;4.90;2.10;;;;;;;24.21;40.07;100016.73;217742;1257;139336;-66
2023/07/06 09:34:55;;;;;;;7.40;2.50;;;;;;;23.99;40.75;100026.84;217793;1257;139910;-66
2023/07/06 09:40:09;;;;;;;4.60;2.30;;;;;;;23.84;40.93;100024.69;217470;1256;139938;-66
2023/07/06 09:45:28;;;;;;;4.90;2.50;;;;;;;23.74;41.23;100022.89;217531;1256;141846;-66
2023/07/06 09:50:39;;;;;;;3.70;1.90;;;;;;;23.70;41.85;100026.05;217412;1257;139357;-65
2023/07/06 09:55:43;;;;;;;7.10;3.20;;;;;;;23.59;41.71;100025.97;218663;1260;139726;-65
2023/07/06 10:00:56;;;;;;;2.30;1.70;;;;;;;23.57;42.54;100037.54;217625;1257;139319;-65
2023/07/06 10:06:20;;;;;;;11.90;2.60;;;;;;;23.68;42.44;100042.05;217482;1257;139454;-66
2023/07/06 10:11:37;;;;;;;2.20;1.90;;;;;;;23.79;41.48;100045.94;218120;1257;141199;-65
2023/07/06 10:16:48;;;;;;;3.20;1.70;;;;;;;24.03;41.48;100035.11;217397;1257;139442;-64
2023/07/06 10:22:27;;;;;;;2.60;1.90;;;;;;;24.60;41.28;100030.27;219709;1256;139701;-65
2023/07/06 10:27:39;;;;;;;3.70;2.40;;;;;;;24.98;40.54;100031.95;219129;1256;140180;-66
2023/07/06 10:32:51;;;;;;;4.10;2.10;;;;;;;25.15;40.40;100031.10;220538;1256;141091;-67
2023/07/06 10:38:01;;;;;;;2.00;1.90;;;;;;;25.21;39.80;100036.49;220386;1256;139956;-67
2023/07/06 10:43:17;;;;;;;3.30;2.10;;;;;;;25.13;39.02;100034.16;220359;1256;186757;-67
2023/07/06 10:48:25;;;;;;;2.00;1.80;;;;;;;25.12;38.97;100034.19;219187;1256;141591;-67
2023/07/06 10:53:35;;;;;;;2.40;2.20;;;;;;;25.25;39.02;100037.83;219175;1256;139396;-67
2023/07/06 10:59:18;;;;;;;4.30;2.10;;;;;;;25.52;39.25;100040.31;218317;1256;140526;-64
2023/07/06 11:04:41;;;;;;;4.70;1.80;;;;;;;25.75;39.07;100043.29;217127;1262;139200;-65
2023/07/06 11:10:12;;;;;;;2.80;2.30;;;;;;;25.97;39.05;100049.11;217652;1259;139385;-65
2023/07/06 11:15:51;;;;;;;5.40;2.40;;;;;;;26.37;38.09;100051.87;217978;1262;141210;-65
2023/07/06 11:21:10;;;;;;;7.10;2.00;;;;;;;26.56;37.35;100046.75;216821;1262;223308;-65
2023/07/06 11:26:44;;;;;;;3.80;2.10;;;;;;;26.83;36.93;100040.22;217831;1262;140340;-64
2023/07/06 11:32:09;;;;;;;2.30;2.00;;;;;;;27.19;36.81;100045.98;216860;1263;139349;-65
2023/07/06 11:37:45;;;;;;;2.30;2.10;;;;;;;27.51;36.79;100045.84;216945;1260;139412;-63
2023/07/06 11:43:43;;;;;;;3.70;2.40;;;;;;;27.49;36.27;100040.91;217395;1256;236790;-66
2023/07/06 11:49:09;;;;;;;2.30;2.10;;;;;;;27.54;36.00;100045.88;217925;1260;140251;-66
2023/07/06 11:54:43;;;;;;;7.60;2.10;;;;;;;27.56;35.44;100048.20;217812;1257;139088;-67
2023/07/06 12:00:32;;;;;;;3.90;2.00;;;;;;;27.64;35.50;100057.86;218487;1256;139320;-65
2023/07/06 12:05:49;;;;;;;3.10;2.70;;;;;;;27.73;35.60;100057.49;218327;1259;140932;-66
2023/07/06 12:11:03;;;;;;;2.80;1.70;;;;;;;27.61;34.77;100053.38;219823;1257;140148;-66
2023/07/06 12:16:15;;;;;;;4.00;2.00;;;;;;;27.51;34.20;100043.80;218364;1256;139709;-65
2023/07/06 12:21:53;;;;;;;2.40;2.20;;;;;;;27.48;34.90;100037.69;218641;1256;139139;-66
2023/07/06 12:27:02;;;;;;;2.00;1.50;;;;;;;27.33;34.46;100037.58;220130;1256;139620;-66
2023/07/06 12:32:21;;;;;;;4.60;2.20;;;;;;;27.07;34.81;100031.96;220248;1257;140349;-69
2023/07/06 12:37:26;;;;;;;1.80;1.70;;;;;;;27.15;34.77;100035.39;220262;1256;140952;-69
2023/07/06 12:42:34;;;;;;;3.50;2.40;;;;;;;27.24;34.75;100030.74;220178;1256;141272;-68
2023/07/06 12:47:41;;;;;;;2.90;1.80;;;;;;;27.20;34.15;100019.77;218353;1258;140342;-67
2023/07/06 12:52:46;;;;;;;3.10;2.10;;;;;;;27.24;34.25;100020.34;217794;1256;139751;-65
2023/07/06 12:57:53;;;;;;;2.50;1.90;;;;;;;27.24;34.25;100019.39;217678;1256;140522;-64
2023/07/06 13:02:58;;;;;;;4.70;2.20;;;;;;;27.31;34.35;100015.25;218308;1257;140104;-65
2023/07/06 13:08:08;;;;;;;2.80;1.80;;;;;;;27.42;34.62;100019.51;217607;1256;139503;-65
2023/07/06 13:13:20;;;;;;;2.70;1.80;;;;;;;27.33;33.87;100014.78;218373;1258;140931;-64
2023/07/06 13:18:25;;;;;;;1.70;1.60;;;;;;;27.31;33.77;100011.03;217633;1257;140295;-66
2023/07/06 13:23:30;;;;;;;3.60;2.20;;;;;;;27.46;34.10;100015.57;217794;1257;139928;-66
2023/07/06 13:28:35;;;;;;;5.50;2.40;;;;;;;27.50;34.12;100011.84;218169;1257;140064;-65
2023/07/06 13:33:41;;;;;;;5.30;2.10;;;;;;;26.96;33.85;100009.20;218054;1256;139336;-64
2023/07/06 13:38:47;;;;;;;11.40;2.60;;;;;;;26.43;34.36;100006.58;218731;1256;139603;-63
2023/07/06 13:43:54;;;;;;;2.00;1.90;;;;;;;26.29;34.98;100000.65;217889;1256;139675;-64
2023/07/06 13:48:59;;;;;;;2.20;1.70;;;;;;;26.21;35.19;99993.45;218561;1256;139888;-65
2023/07/06 13:54:08;;;;;;;2.50;2.30;;;;;;;26.03;35.57;99998.23;217612;1256;139976;-64
2023/07/06 13:59:15;;;;;;;1.70;1.60;;;;;;;25.78;35.85;99999.81;219382;1256;139068;-65
2023/07/06 14:04:24;;;;;;;5.80;2.10;;;;;;;25.62;36.27;99999.50;218310;1256;139820;-67
2023/07/06 14:09:28;;;;;;;2.30;1.80;;;;;;;25.61;36.03;99995.94;217689;1257;139378;-65
2023/07/06 14:14:34;;;;;;;2.20;1.90;;;;;;;25.51;36.13;99988.58;218984;1256;139246;-65
2023/07/06 14:19:39;;;;;;;3.20;1.90;;;;;;;25.49;36.05;99989.94;218012;1258;139988;-65
2023/07/06 14:25:22;;;;;;;2.70;2.50;;;;;;;25.72;35.94;99985.77;218423;1256;140520;-65
2023/07/06 14:30:30;;;;;;;2.30;2.10;;;;;;;25.77;35.47;99982.70;218782;1256;139565;-71
2023/07/06 14:35:37;;;;;;;6.50;2.30;;;;;;;25.72;35.69;99982.02;219357;1257;140503;-69
2023/07/06 14:40:43;;;;;;;5.80;2.30;;;;;;;25.99;35.77;99976.14;219660;1257;139322;-70
2023/07/06 14:45:47;;;;;;;2.50;2.30;;;;;;;26.21;35.41;99964.03;219447;1256;139893;-68
2023/07/06 14:50:52;;;;;;;10.70;1.90;;;;;;;26.24;35.05;99964.08;219232;1256;140203;-68
2023/07/06 14:55:57;;;;;;;2.50;1.90;;;;;;;26.29;34.66;99970.38;218831;1257;139085;-71
2023/07/06 15:01:03;;;;;;;2.50;1.90;;;;;;;26.27;34.69;99966.45;217403;1256;206095;-72
2023/07/06 15:06:10;;;;;;;4.80;2.00;;;;;;;26.25;34.36;99964.10;218889;1257;140848;-68
2023/07/06 15:11:18;;;;;;;7.70;2.30;;;;;;;26.25;34.44;99963.95;217643;1256;139860;-69
2023/07/06 15:16:27;;;;;;;1.80;1.60;;;;;;;26.23;34.22;99968.17;218177;1256;140006;-66
2023/07/06 15:21:32;;;;;;;1.70;1.40;;;;;;;26.18;33.99;99963.52;217464;1257;138818;-68
2023/07/06 15:26:36;;;;;;;5.70;2.50;;;;;;;26.18;34.03;99967.30;217920;1257;139050;-68
2023/07/06 15:31:42;;;;;;;2.40;2.20;;;;;;;26.20;34.12;99971.17;217855;1256;234035;-66
2023/07/06 15:36:47;;;;;;;5.40;2.50;;;;;;;26.17;34.09;99971.52;217776;1259;139271;-75
2023/07/06 15:41:54;;;;;;;2.50;2.10;;;;;;;26.15;33.98;99969.52;218381;1256;140222;-70
2023/07/06 15:46:59;;;;;;;2.50;2.00;;;;;;;26.18;34.00;99973.20;217739;1256;138772;-71
2023/07/06 15:52:03;;;;;;;3.40;2.30;;;;;;;26.25;34.18;99980.98;218494;1256;138745;-66
2023/07/06 15:57:08;;;;;;;4.00;2.40;;;;;;;26.27;34.23;99980.98;217756;1257;138982;-69
2023/07/06 16:02:12;;;;;;;2.80;2.50;;;;;;;26.01;33.87;99980.76;217901;1255;139762;-67
2023/07/06 16:07:18;;;;;;;2.20;2.00;;;;;;;25.93;34.16;99979.96;218426;1256;140326;-67
2023/07/06 16:12:22;;;;;;;2.20;2.00;;;;;;;26.00;34.39;99979.98;218266;1256;139998;-69
2023/07/06 16:17:27;;;;;;;2.30;2.20;;;;;;;26.02;34.47;99984.05;220488;1255;139566;-68
2023/07/06 16:22:35;;;;;;;2.00;1.80;;;;;;;26.02;34.39;99979.69;219119;1258;140302;-67
2023/07/06 16:27:39;;;;;;;4.60;2.30;;;;;;;25.95;34.47;99978.81;219336;1255;139687;-68
2023/07/06 16:32:43;;;;;;;2.40;2.00;;;;;;;25.99;34.44;99982.77;220659;1256;140499;-69
2023/07/06 16:37:49;;;;;;;2.00;1.70;;;;;;;25.97;34.53;99982.95;218279;1257;139285;-67
2023/07/06 16:42:57;;;;;;;3.30;2.00;;;;;;;25.79;34.28;99977.61;219757;1256;139766;-68
2023/07/06 16:48:04;;;;;;;2.20;2.10;;;;;;;25.47;34.60;99977.17;217792;1257;139647;-67
2023/07/06 16:53:10;;;;;;;2.70;2.50;;;;;;;25.30;34.99;99978.73;219177;1257;140500;-67
2023/07/06 16:58:17;;;;;;;1.70;1.60;;;;;;;25.22;35.91;99980.84;218200;1256;139206;-67
2023/07/06 17:03:27;;;;;;;2.40;2.00;;;;;;;25.17;36.87;99984.11;218848;1256;139862;-69
2023/07/06 17:08:38;;;;;;;7.00;2.70;;;;;;;25.01;37.34;99982.36;218068;1259;150806;-70
2023/07/06 17:13:43;;;;;;;3.10;2.60;;;;;;;24.78;37.72;99986.17;217923;1257;139730;-68
2023/07/06 17:18:49;;;;;;;4.50;2.20;;;;;;;24.49;38.89;99993.38;218641;1259;140137;-67
2023/07/06 17:23:54;;;;;;;5.20;2.60;;;;;;;24.17;40.04;99991.58;217883;1259;139491;-66
2023/07/06 17:28:59;;;;;;;3.00;2.30;;;;;;;23.87;40.51;99998.30;218828;1257;139798;-68
2023/07/06 17:34:05;;;;;;;4.60;2.20;;;;;;;23.60;41.50;99999.65;217774;1259;139216;-67
2023/07/06 17:39:11;;;;;;;4.10;2.20;;;;;;;23.31;42.14;99997.26;218774;1256;139672;-69
2023/07/06 17:44:18;;;;;;;2.70;2.20;;;;;;;23.09;43.28;100004.66;217693;1257;139064;-67
2023/07/06 17:49:28;;;;;;;4.50;2.90;;;;;;;22.97;44.23;100002.00;219036;1256;139544;-72
2023/07/06 17:54:33;;;;;;;4.00;3.00;;;;;;;22.89;45.64;100008.79;220476;1256;140295;-69
2023/07/06 17:59:39;;;;;;;3.60;2.20;;;;;;;22.80;46.96;100015.95;217928;1259;138951;-68
2023/07/06 18:04:46;;;;;;;3.00;2.80;;;;;;;22.71;48.19;100014.58;219687;1257;140515;-70
2023/07/06 18:09:56;;;;;;;2.30;2.10;;;;;;;22.64;48.52;100008.09;219677;1259;140377;-70
2023/07/06 18:15:03;;;;;;;2.10;2.00;;;;;;;22.54;49.25;100015.48;220557;1255;139594;-69
2023/07/06 18:20:09;;;;;;;3.50;2.50;;;;;;;22.47;50.20;100016.22;220411;1257;139196;-68
2023/07/06 18:25:18;;;;;;;3.30;2.50;;;;;;;22.38;51.01;100020.45;219356;1256;139600;-69
2023/07/06 18:30:27;;;;;;;3.10;2.90;;;;;;;22.24;51.40;100021.09;220371;1256;161803;-67
2023/07/06 18:35:35;;;;;;;3.90;3.10;;;;;;;22.08;51.30;100030.11;217982;1257;141124;-67
2023/07/06 18:40:41;;;;;;;;;;;;;;;21.88;51.73;100038.98;218510;1257;139970;-66
2023/07/06 18:45:46;;;;;;;4.60;2.80;;;;;;;21.60;51.89;100042.39;218067;1259;125952;-67
2023/07/06 18:50:50;;;;;;;3.40;2.50;;;;;;;21.36;52.14;100046.24;218045;1256;140345;-70
2023/07/06 18:55:54;;;;;;;2.40;2.10;;;;;;;21.11;52.47;100048.98;218596;1256;139705;-67
2023/07/06 19:01:00;;;;;;;3.30;2.40;;;;;;;20.86;53.00;100047.71;217988;1257;140017;-67
2023/07/06 19:06:07;;;;;;;6.10;3.80;;;;;;;20.59;53.68;100054.08;218124;1257;139257;-67
2023/07/06 19:11:22;;;;;;;3.70;3.30;;;;;;;20.21;54.28;100060.36;217759;1255;139792;-69
2023/07/06 19:16:28;;;;;;;6.70;3.20;;;;;;;19.83;55.07;100071.32;218554;1257;139641;-69
2023/07/06 19:21:34;;;;;;;6.10;3.00;;;;;;;19.48;55.85;100074.04;218426;1257;139281;-71
2023/07/06 19:26:42;;;;;;;3.50;2.90;;;;;;;19.17;56.45;100077.55;217866;1257;139274;-74
2023/07/06 19:31:50;;;;;;;10.00;3.40;;;;;;;18.87;56.82;100077.95;217902;1257;139461;-70
2023/07/06 19:37:15;;;;;;;12.40;3.30;;;;;;;18.66;57.12;100083.16;217771;1257;140527;-71
2023/07/06 19:42:23;;;;;;;7.40;2.90;;;;;;;18.49;57.35;100085.33;218485;1256;139242;-68
2023/07/06 19:47:30;;;;;;;26.30;5.10;;;;;;;18.19;57.68;100090.17;219152;1256;139626;-67
2023/07/06 19:52:38;;;;;;;5.80;3.30;;;;;;;17.99;58.32;100099.64;219495;1257;140462;-69
2023/07/06 19:57:43;;;;;;;10.80;3.40;;;;;;;17.90;58.68;100103.60;218780;1257;139504;-67
2023/07/06 20:02:50;;;;;;;8.50;3.70;;;;;;;17.70;58.50;100107.24;217891;1257;140660;-66
2023/07/06 20:07:55;;;;;;;5.20;3.40;;;;;;;17.57;59.05;100106.77;220371;1256;139139;-66
2023/07/06 20:13:01;;;;;;;7.90;3.40;;;;;;;17.45;59.25;100106.88;220410;1256;140655;-68
2023/07/06 20:18:06;;;;;;;7.70;3.40;;;;;;;17.26;59.12;100110.55;220376;1257;140559;-68
2023/07/06 20:23:12;;;;;;;5.70;3.20;;;;;;;16.93;59.37;100114.14;218657;1259;140995;-69
2023/07/06 20:28:20;;;;;;;6.10;4.20;;;;;;;16.70;60.01;100115.27;218449;1257;140026;-67
2023/07/06 20:33:29;;;;;;;3.60;3.30;;;;;;;16.43;60.59;100119.52;219618;1256;140793;-68
2023/07/06 20:38:37;;;;;;;4.70;4.20;;;;;;;16.22;61.23;100120.79;218091;1259;140546;-65
2023/07/06 20:43:53;;;;;;;4.50;3.50;;;;;;;16.16;62.01;100127.98;218121;1257;140436;-65
2023/07/06 20:49:05;;;;;;;4.90;3.60;;;;;;;16.13;62.34;100140.87;218255;1259;139652;-68
2023/07/06 20:54:13;;;;;;;4.50;3.70;;;;;;;16.05;62.53;100149.80;217604;1256;139850;-67
2023/07/06 20:59:22;;;;;;;4.60;3.00;;;;;;;15.86;62.48;100152.91;218421;1256;142342;-68
2023/07/06 21:04:30;;;;;;;7.80;5.30;;;;;;;15.60;62.66;100155.29;217870;1257;140876;-68
2023/07/06 21:09:37;;;;;;;4.00;3.10;;;;;;;15.47;63.41;100160.17;218008;1257;140157;-68
2023/07/06 21:14:43;;;;;;;;;;;;;;;15.31;63.79;100165.30;218230;1256;140417;-68
2023/07/06 21:19:50;;;;;;;3.40;3.10;;;;;;;15.13;64.00;100165.50;217867;1258;127070;-66
2023/07/06 21:24:57;;;;;;;4.20;3.40;;;;;;;15.05;64.72;100186.85;218155;1257;140307;-70
2023/07/06 21:30:06;;;;;;;6.30;3.70;;;;;;;15.03;65.27;100188.88;217804;1257;140038;-68
2023/07/06 21:35:11;;;;;;;5.80;3.50;;;;;;;14.90;65.21;100188.64;218365;1255;139901;-68
2023/07/06 21:40:21;;;;;;;4.30;3.80;;;;;;;14.64;65.43;100186.14;218382;1259;140797;-67
2023/07/06 21:45:26;;;;;;;5.10;4.40;;;;;;;14.43;66.05;100191.39;217847;1257;140919;-66
2023/07/06 21:50:30;;;;;;;5.10;4.30;;;;;;;14.35;66.80;100190.80;218627;1259;140300;-67
2023/07/06 21:55:35;;;;;;;4.50;3.70;;;;;;;14.32;67.25;100195.21;218491;1257;141072;-68
2023/07/06 22:00:49;;;;;;;5.20;4.60;;;;;;;14.23;67.26;100203.34;220121;1257;139889;-69
2023/07/06 22:06:03;;;;;;;4.70;4.00;;;;;;;14.19;67.55;100207.47;220585;1256;140093;-71
2023/07/06 22:11:10;;;;;;;4.40;4.00;;;;;;;14.15;67.67;100207.34;219310;1256;140037;-75
2023/07/06 22:16:17;;;;;;;4.80;4.40;;;;;;;14.06;67.87;100207.77;220339;1257;140599;-73
2023/07/06 22:21:22;;;;;;;9.60;4.10;;;;;;;13.96;68.14;100209.55;220331;1256;140494;-72
2023/07/06 22:26:26;;;;;;;7.00;4.70;;;;;;;13.87;68.21;100207.52;219677;1255;139623;-68
2023/07/06 22:31:30;;;;;;;7.80;4.00;;;;;;;13.74;68.41;100209.48;218240;1259;141041;-73
2023/07/06 22:36:35;;;;;;;5.60;3.60;;;;;;;13.62;68.38;100216.39;217740;1259;140490;-70
2023/07/06 22:41:39;;;;;;;7.20;5.20;;;;;;;13.50;69.03;100213.94;219327;1257;826189;-68
2023/07/06 22:46:51;;;;;;;6.40;4.50;;;;;;;13.41;69.21;100210.76;219026;1260;140390;-67
2023/07/06 22:52:00;;;;;;;4.80;4.30;;;;;;;13.30;69.44;100205.52;218295;1260;140501;-68
2023/07/06 22:57:05;;;;;;;5.00;4.60;;;;;;;13.13;69.65;100199.91;218183;1259;140877;-67
2023/07/06 23:02:10;;;;;;;6.40;4.00;;;;;;;12.96;69.90;100200.56;218109;1259;139769;-71
2023/07/06 23:07:15;;;;;;;7.50;4.60;;;;;;;12.88;70.19;100208.39;218896;1257;139697;-67
2023/07/06 23:12:21;;;;;;;8.70;5.10;;;;;;;12.85;70.41;100206.83;217928;1260;140232;-69
2023/07/06 23:17:26;;;;;;;6.50;5.00;;;;;;;12.87;70.69;100213.34;217828;1258;141248;-72
2023/07/06 23:22:34;;;;;;;7.90;4.50;;;;;;;12.81;70.99;100221.91;217934;1256;139952;-68
2023/07/06 23:27:39;;;;;;;8.90;4.70;;;;;;;12.73;70.63;100225.88;218512;1257;140810;-69
2023/07/06 23:32:48;;;;;;;6.50;4.70;;;;;;;12.66;70.93;100230.20;217815;1260;140316;-69
2023/07/06 23:37:56;;;;;;;6.60;5.60;;;;;;;12.61;71.31;100232.02;217860;1257;141338;-70